<?xml version="1.0" encoding="UTF-8" standalone="no" ?>
<gpx xmlns="http://www.topografix.com/GPX/1/1" xmlns:xsi="http://www.w3.org/2001/XMLSchema-instance" xsi:schemaLocation="http://www.topografix.com/GPX/1/1 http://www.topografix.com/GPX/1/1/gpx.xsd" version="1.1" creator="VisuGPX - https://www.visugpx.com">
  <metadata>
    <name>Explo albat actuel</name>
  </metadata>
  <wpt lat="47.62579" lon="-2.77487">
    <ele>2</ele>
    <name><![CDATA[Point de passage 1]]></name>
    <type><![CDATA[GENERIC]]></type>
  </wpt>
  <wpt lat="47.63244" lon="-2.75711">
    <ele>6</ele>
    <name><![CDATA[Point de passage 2]]></name>
    <type><![CDATA[GENERIC]]></type>
  </wpt>
  <trk>
    <name><![CDATA[Explo albat actuel]]></name>
    <trkseg>
      <trkpt lat="47.62579" lon="-2.77487">
        <ele>2</ele>
        <time>2025-06-24T14:10:31.000Z</time>
      </trkpt>
      <trkpt lat="47.62527" lon="-2.77481">
        <ele>5</ele>
        <time>2025-06-24T14:12:01.000Z</time>
      </trkpt>
      <trkpt lat="47.62482" lon="-2.77478">
        <ele>8</ele>
        <time>2025-06-24T14:13:24.000Z</time>
      </trkpt>
      <trkpt lat="47.62365" lon="-2.775">
        <ele>14</ele>
        <time>2025-06-24T14:16:40.000Z</time>
      </trkpt>
      <trkpt lat="47.62322" lon="-2.77433">
        <ele>15</ele>
        <time>2025-06-24T14:18:02.000Z</time>
      </trkpt>
      <trkpt lat="47.62296" lon="-2.77305">
        <ele>14</ele>
        <time>2025-06-24T14:19:45.000Z</time>
      </trkpt>
      <trkpt lat="47.62266" lon="-2.77305">
        <ele>15</ele>
        <time>2025-06-24T14:20:30.000Z</time>
      </trkpt>
      <trkpt lat="47.62322" lon="-2.77237">
        <ele>12</ele>
        <time>2025-06-24T14:21:53.000Z</time>
      </trkpt>
      <trkpt lat="47.62177" lon="-2.76843">
        <ele>10</ele>
        <time>2025-06-24T14:27:39.000Z</time>
      </trkpt>
      <trkpt lat="47.6208" lon="-2.76792">
        <ele>8</ele>
        <time>2025-06-24T14:29:37.000Z</time>
      </trkpt>
      <trkpt lat="47.62033" lon="-2.7666">
        <ele>10</ele>
        <time>2025-06-24T14:31:53.000Z</time>
      </trkpt>
      <trkpt lat="47.62059" lon="-2.76615">
        <ele>10</ele>
        <time>2025-06-24T14:32:39.000Z</time>
      </trkpt>
      <trkpt lat="47.61985" lon="-2.76401">
        <ele>13</ele>
        <time>2025-06-24T14:36:16.000Z</time>
      </trkpt>
      <trkpt lat="47.61918" lon="-2.76282">
        <ele>11</ele>
        <time>2025-06-24T14:38:15.000Z</time>
      </trkpt>
      <trkpt lat="47.61994" lon="-2.76205">
        <ele>6</ele>
        <time>2025-06-24T14:40:00.000Z</time>
      </trkpt>
      <trkpt lat="47.61925" lon="-2.7626">
        <ele>11</ele>
        <time>2025-06-24T14:42:21.000Z</time>
      </trkpt>
      <trkpt lat="47.61903" lon="-2.76189">
        <ele>12</ele>
        <time>2025-06-24T14:43:31.000Z</time>
      </trkpt>
      <trkpt lat="47.61901" lon="-2.76096">
        <ele>11</ele>
        <time>2025-06-24T14:44:43.000Z</time>
      </trkpt>
      <trkpt lat="47.61873" lon="-2.75984">
        <ele>9</ele>
        <time>2025-06-24T14:46:15.000Z</time>
      </trkpt>
      <trkpt lat="47.61853" lon="-2.7591">
        <ele>7</ele>
        <time>2025-06-24T14:47:16.000Z</time>
      </trkpt>
      <trkpt lat="47.61853" lon="-2.75856">
        <ele>6</ele>
        <time>2025-06-24T14:47:58.000Z</time>
      </trkpt>
      <trkpt lat="47.61804" lon="-2.7567">
        <ele>3</ele>
        <time>2025-06-24T14:50:32.000Z</time>
      </trkpt>
      <trkpt lat="47.61743" lon="-2.75654">
        <ele>4</ele>
        <time>2025-06-24T14:51:53.000Z</time>
      </trkpt>
      <trkpt lat="47.61709" lon="-2.75548">
        <ele>6</ele>
        <time>2025-06-24T14:53:44.000Z</time>
      </trkpt>
      <trkpt lat="47.61696" lon="-2.75429">
        <ele>6</ele>
        <time>2025-06-24T14:55:17.000Z</time>
      </trkpt>
      <trkpt lat="47.61648" lon="-2.75285">
        <ele>11</ele>
        <time>2025-06-24T14:58:12.000Z</time>
      </trkpt>
      <trkpt lat="47.61605" lon="-2.75263">
        <ele>14</ele>
        <time>2025-06-24T14:59:35.000Z</time>
      </trkpt>
      <trkpt lat="47.6151" lon="-2.75106">
        <ele>14</ele>
        <time>2025-06-24T15:02:18.000Z</time>
      </trkpt>
      <trkpt lat="47.61562" lon="-2.7507">
        <ele>12</ele>
        <time>2025-06-24T15:03:23.000Z</time>
      </trkpt>
      <trkpt lat="47.61508" lon="-2.74916">
        <ele>15</ele>
        <time>2025-06-24T15:06:08.000Z</time>
      </trkpt>
      <trkpt lat="47.61501" lon="-2.74734">
        <ele>8</ele>
        <time>2025-06-24T15:08:29.000Z</time>
      </trkpt>
      <trkpt lat="47.61417" lon="-2.74657">
        <ele>6</ele>
        <time>2025-06-24T15:10:22.000Z</time>
      </trkpt>
      <trkpt lat="47.6141" lon="-2.74414">
        <ele>3</ele>
        <time>2025-06-24T15:13:29.000Z</time>
      </trkpt>
      <trkpt lat="47.61382" lon="-2.74392">
        <ele>4</ele>
        <time>2025-06-24T15:14:16.000Z</time>
      </trkpt>
      <trkpt lat="47.61392" lon="-2.74177">
        <ele>3</ele>
        <time>2025-06-24T15:17:02.000Z</time>
      </trkpt>
      <trkpt lat="47.61367" lon="-2.73914">
        <ele>3</ele>
        <time>2025-06-24T15:20:27.000Z</time>
      </trkpt>
      <trkpt lat="47.61347" lon="-2.73831">
        <ele>4</ele>
        <time>2025-06-24T15:21:45.000Z</time>
      </trkpt>
      <trkpt lat="47.61425" lon="-2.73716">
        <ele>2</ele>
        <time>2025-06-24T15:23:51.000Z</time>
      </trkpt>
      <trkpt lat="47.61392" lon="-2.73668">
        <ele>3</ele>
        <time>2025-06-24T15:24:54.000Z</time>
      </trkpt>
      <trkpt lat="47.61427" lon="-2.73568">
        <ele>2</ele>
        <time>2025-06-24T15:26:20.000Z</time>
      </trkpt>
      <trkpt lat="47.6149" lon="-2.736">
        <ele>1</ele>
        <time>2025-06-24T15:27:36.000Z</time>
      </trkpt>
      <trkpt lat="47.616" lon="-2.73526">
        <ele>5</ele>
        <time>2025-06-24T15:30:36.000Z</time>
      </trkpt>
      <trkpt lat="47.61704" lon="-2.73744">
        <ele>4</ele>
        <time>2025-06-24T15:34:02.000Z</time>
      </trkpt>
      <trkpt lat="47.61801" lon="-2.73934">
        <ele>4</ele>
        <time>2025-06-24T15:37:06.000Z</time>
      </trkpt>
      <trkpt lat="47.61814" lon="-2.74011">
        <ele>3</ele>
        <time>2025-06-24T15:38:07.000Z</time>
      </trkpt>
      <trkpt lat="47.61907" lon="-2.74094">
        <ele>3</ele>
        <time>2025-06-24T15:40:11.000Z</time>
      </trkpt>
      <trkpt lat="47.61965" lon="-2.74084">
        <ele>3</ele>
        <time>2025-06-24T15:41:18.000Z</time>
      </trkpt>
      <trkpt lat="47.62002" lon="-2.74113">
        <ele>3</ele>
        <time>2025-06-24T15:42:06.000Z</time>
      </trkpt>
      <trkpt lat="47.6206" lon="-2.74129">
        <ele>4</ele>
        <time>2025-06-24T15:43:24.000Z</time>
      </trkpt>
      <trkpt lat="47.62149" lon="-2.74196">
        <ele>4</ele>
        <time>2025-06-24T15:45:18.000Z</time>
      </trkpt>
      <trkpt lat="47.62259" lon="-2.74344">
        <ele>4</ele>
        <time>2025-06-24T15:48:08.000Z</time>
      </trkpt>
      <trkpt lat="47.6233" lon="-2.74289">
        <ele>7</ele>
        <time>2025-06-24T15:50:10.000Z</time>
      </trkpt>
      <trkpt lat="47.62388" lon="-2.74308">
        <ele>6</ele>
        <time>2025-06-24T15:51:18.000Z</time>
      </trkpt>
      <trkpt lat="47.62412" lon="-2.7434">
        <ele>4</ele>
        <time>2025-06-24T15:51:55.000Z</time>
      </trkpt>
      <trkpt lat="47.62511" lon="-2.74267">
        <ele>4</ele>
        <time>2025-06-24T15:54:02.000Z</time>
      </trkpt>
      <trkpt lat="47.62574" lon="-2.7418">
        <ele>3</ele>
        <time>2025-06-24T15:55:40.000Z</time>
      </trkpt>
      <trkpt lat="47.62574" lon="-2.74081">
        <ele>3</ele>
        <time>2025-06-24T15:56:57.000Z</time>
      </trkpt>
      <trkpt lat="47.62688" lon="-2.74148">
        <ele>3</ele>
        <time>2025-06-24T15:59:18.000Z</time>
      </trkpt>
      <trkpt lat="47.62811" lon="-2.74207">
        <ele>3</ele>
        <time>2025-06-24T16:01:46.000Z</time>
      </trkpt>
      <trkpt lat="47.63064" lon="-2.7439">
        <ele>6</ele>
        <time>2025-06-24T16:07:39.000Z</time>
      </trkpt>
      <trkpt lat="47.6323" lon="-2.74502">
        <ele>3</ele>
        <time>2025-06-24T16:11:08.000Z</time>
      </trkpt>
      <trkpt lat="47.63157" lon="-2.74669">
        <ele>2</ele>
        <time>2025-06-24T16:13:42.000Z</time>
      </trkpt>
      <trkpt lat="47.63083" lon="-2.74634">
        <ele>2</ele>
        <time>2025-06-24T16:15:10.000Z</time>
      </trkpt>
      <trkpt lat="47.63055" lon="-2.74672">
        <ele>2</ele>
        <time>2025-06-24T16:15:54.000Z</time>
      </trkpt>
      <trkpt lat="47.63001" lon="-2.7465">
        <ele>2</ele>
        <time>2025-06-24T16:16:58.000Z</time>
      </trkpt>
      <trkpt lat="47.62973" lon="-2.7466">
        <ele>3</ele>
        <time>2025-06-24T16:17:42.000Z</time>
      </trkpt>
      <trkpt lat="47.62929" lon="-2.74579">
        <ele>2</ele>
        <time>2025-06-24T16:19:02.000Z</time>
      </trkpt>
      <trkpt lat="47.62886" lon="-2.74584">
        <ele>3</ele>
        <time>2025-06-24T16:20:02.000Z</time>
      </trkpt>
      <trkpt lat="47.62809" lon="-2.74628">
        <ele>2</ele>
        <time>2025-06-24T16:21:37.000Z</time>
      </trkpt>
      <trkpt lat="47.62727" lon="-2.74624">
        <ele>2</ele>
        <time>2025-06-24T16:23:11.000Z</time>
      </trkpt>
      <trkpt lat="47.62631" lon="-2.74677">
        <ele>2</ele>
        <time>2025-06-24T16:25:09.000Z</time>
      </trkpt>
      <trkpt lat="47.62638" lon="-2.74812">
        <ele>6</ele>
        <time>2025-06-24T16:27:34.000Z</time>
      </trkpt>
      <trkpt lat="47.62781" lon="-2.7479">
        <ele>6</ele>
        <time>2025-06-24T16:30:19.000Z</time>
      </trkpt>
      <trkpt lat="47.62758" lon="-2.74884">
        <ele>9</ele>
        <time>2025-06-24T16:32:07.000Z</time>
      </trkpt>
      <trkpt lat="47.6274" lon="-2.74959">
        <ele>11</ele>
        <time>2025-06-24T16:33:29.000Z</time>
      </trkpt>
      <trkpt lat="47.62677" lon="-2.75046">
        <ele>12</ele>
        <time>2025-06-24T16:35:18.000Z</time>
      </trkpt>
      <trkpt lat="47.62641" lon="-2.75084">
        <ele>12</ele>
        <time>2025-06-24T16:36:08.000Z</time>
      </trkpt>
      <trkpt lat="47.62577" lon="-2.75229">
        <ele>5</ele>
        <time>2025-06-24T16:38:21.000Z</time>
      </trkpt>
      <trkpt lat="47.62787" lon="-2.75329">
        <ele>4</ele>
        <time>2025-06-24T16:42:33.000Z</time>
      </trkpt>
      <trkpt lat="47.62833" lon="-2.75368">
        <ele>4</ele>
        <time>2025-06-24T16:43:33.000Z</time>
      </trkpt>
      <trkpt lat="47.6294" lon="-2.75515">
        <ele>4</ele>
        <time>2025-06-24T16:46:19.000Z</time>
      </trkpt>
      <trkpt lat="47.62967" lon="-2.75628">
        <ele>6</ele>
        <time>2025-06-24T16:48:12.000Z</time>
      </trkpt>
      <trkpt lat="47.6296" lon="-2.75668">
        <ele>5</ele>
        <time>2025-06-24T16:48:44.000Z</time>
      </trkpt>
      <trkpt lat="47.62973" lon="-2.75715">
        <ele>4</ele>
        <time>2025-06-24T16:49:23.000Z</time>
      </trkpt>
      <trkpt lat="47.6301" lon="-2.75737">
        <ele>4</ele>
        <time>2025-06-24T16:50:09.000Z</time>
      </trkpt>
      <trkpt lat="47.6309" lon="-2.75684">
        <ele>5</ele>
        <time>2025-06-24T16:51:59.000Z</time>
      </trkpt>
      <trkpt lat="47.63187" lon="-2.75766">
        <ele>5</ele>
        <time>2025-06-24T16:54:07.000Z</time>
      </trkpt>
      <trkpt lat="47.63244" lon="-2.75711">
        <ele>6</ele>
        <time>2025-06-24T16:55:35.000Z</time>
      </trkpt>
    </trkseg>
  </trk>
</gpx>